PRM4211 KEGE-CYEG
Flight info
| Callsign | PRM4211 |
|---|---|
| Flight time | 2h 18m |
| Altitude | 34000 |
| Route | BEVVR1 SPRKT DCT EKR DCT OCS DCT DNW DCT HLN DCT YQL DCT SESDA DCT BIRKO DCT RODKU DCT OILRS OILRS2 |
| Aircraft | B77L/H-SDE1E2E3FGHIJ2J3J4J5M1RWXY/LB1D1 |
Departure
| Time | 2026-05-05 22:44 |
|---|---|
| Airport | Eagle County Regional Airport (KEGE) |
Arrival
| Time | 2026-05-06 01:02 |
|---|---|
| Airport | Edmonton International Airport (CYEG) |
| Time | Latitude | Longitude | Altitude | Speed | Heading |
|---|---|---|---|---|---|
| 2026-05-05 22:17 | 39.64126 | -106.91052 | 6601 ft | 0 kts | 172° |
| 2026-05-05 22:31 | 39.64132 | -106.91053 | 6601 ft | 1 kts | 140° |
| 2026-05-05 22:31 | 39.64142 | -106.91066 | 6600 ft | 2 kts | 136° |
| 2026-05-05 22:31 | 39.64152 | -106.91081 | 6599 ft | 2 kts | 115° |
| 2026-05-05 22:32 | 39.64156 | -106.91099 | 6598 ft | 2 kts | 92° |
| 2026-05-05 22:32 | 39.64155 | -106.91119 | 6598 ft | 2 kts | 79° |
| 2026-05-05 22:32 | 39.64154 | -106.91125 | 6598 ft | 0 kts | 79° |
| 2026-05-05 22:39 | 39.64154 | -106.91124 | 6598 ft | 0 kts | 79° |
| 2026-05-05 22:40 | 39.64158 | -106.91101 | 6598 ft | 4 kts | 79° |
| 2026-05-05 22:40 | 39.64165 | -106.91052 | 6600 ft | 6 kts | 79° |
| 2026-05-05 22:40 | 39.64178 | -106.90961 | 6600 ft | 14 kts | 69° |
| 2026-05-05 22:40 | 39.64241 | -106.90868 | 6599 ft | 13 kts | 69° |
| 2026-05-05 22:41 | 39.64257 | -106.90758 | 6603 ft | 9 kts | 81° |
| 2026-05-05 22:41 | 39.64267 | -106.90688 | 6607 ft | 6 kts | 79° |
| 2026-05-05 22:41 | 39.64274 | -106.90636 | 6610 ft | 6 kts | 81° |
| 2026-05-05 22:41 | 39.64284 | -106.90537 | 6616 ft | 15 kts | 82° |
| 2026-05-05 22:42 | 39.64300 | -106.90391 | 6618 ft | 15 kts | 82° |
| 2026-05-05 22:42 | 39.64313 | -106.90264 | 6617 ft | 13 kts | 82° |
| 2026-05-05 22:42 | 39.64323 | -106.90155 | 6617 ft | 11 kts | 83° |
| 2026-05-05 22:42 | 39.64335 | -106.90063 | 6617 ft | 9 kts | 69° |
| 2026-05-05 22:43 | 39.64380 | -106.90015 | 6620 ft | 5 kts | 8° |
| 2026-05-05 22:43 | 39.64412 | -106.90018 | 6623 ft | 7 kts | 346° |
| 2026-05-05 22:43 | 39.64439 | -106.90121 | 6622 ft | 22 kts | 259° |
| 2026-05-05 22:43 | 39.64384 | -106.90597 | 6611 ft | 89 kts | 262° |
| 2026-05-05 22:44 | 39.64268 | -106.91693 | 6578 ft | 156 kts | 262° |
| 2026-05-05 22:44 | 39.64053 | -106.93316 | 6725 ft | 199 kts | 256° |
| 2026-05-05 22:44 | 39.63347 | -106.94840 | 7484 ft | 208 kts | 223° |
| 2026-05-05 22:44 | 39.62100 | -106.95845 | 8117 ft | 216 kts | 212° |
| 2026-05-05 22:45 | 39.60722 | -106.96783 | 8314 ft | 235 kts | 211° |
| 2026-05-05 22:45 | 39.59257 | -106.97963 | 8417 ft | 257 kts | 228° |
| 2026-05-05 22:45 | 39.58264 | -106.99889 | 8780 ft | 260 kts | 257° |
| 2026-05-05 22:45 | 39.58022 | -107.02174 | 9421 ft | 259 kts | 273° |
| 2026-05-05 22:46 | 39.58099 | -107.04531 | 10117 ft | 261 kts | 281° |
| 2026-05-05 22:46 | 39.58693 | -107.06744 | 10593 ft | 269 kts | 303° |
| 2026-05-05 22:46 | 39.59933 | -107.08575 | 11101 ft | 277 kts | 316° |
| 2026-05-05 22:46 | 39.61436 | -107.10175 | 11773 ft | 280 kts | 330° |
| 2026-05-05 22:47 | 39.63273 | -107.10922 | 12435 ft | 283 kts | 355° |
| 2026-05-05 22:47 | 39.65240 | -107.10734 | 12992 ft | 289 kts | 8° |
| 2026-05-05 22:47 | 39.67222 | -107.10219 | 13554 ft | 294 kts | 9° |
| 2026-05-05 22:47 | 39.69228 | -107.09660 | 14130 ft | 298 kts | 9° |
| 2026-05-05 22:48 | 39.71273 | -107.09392 | 14698 ft | 298 kts | 349° |
| 2026-05-05 22:48 | 39.73221 | -107.10202 | 15299 ft | 294 kts | 324° |
| 2026-05-05 22:48 | 39.74771 | -107.11956 | 15662 ft | 302 kts | 305° |
| 2026-05-05 22:48 | 39.76044 | -107.14201 | 16072 ft | 314 kts | 301° |
| 2026-05-05 22:49 | 39.77290 | -107.16594 | 16517 ft | 325 kts | 300° |
| 2026-05-05 22:49 | 39.78573 | -107.19076 | 16940 ft | 338 kts | 300° |
| 2026-05-05 22:49 | 39.79915 | -107.21662 | 17348 ft | 350 kts | 300° |
| 2026-05-05 22:49 | 39.81294 | -107.24316 | 17733 ft | 363 kts | 300° |
| 2026-05-05 22:50 | 39.82734 | -107.27086 | 18122 ft | 376 kts | 301° |
| 2026-05-05 22:50 | 39.84232 | -107.29970 | 18560 ft | 388 kts | 301° |
| 2026-05-05 22:50 | 39.85745 | -107.32884 | 19043 ft | 399 kts | 301° |
| 2026-05-05 22:50 | 39.87317 | -107.35915 | 19684 ft | 405 kts | 301° |
| 2026-05-05 22:51 | 39.88892 | -107.38953 | 20344 ft | 410 kts | 301° |
| 2026-05-05 22:51 | 39.90509 | -107.42073 | 20941 ft | 416 kts | 301° |
| 2026-05-05 22:51 | 39.92126 | -107.45200 | 21489 ft | 422 kts | 301° |
| 2026-05-05 22:51 | 39.93763 | -107.48368 | 22019 ft | 428 kts | 301° |
| 2026-05-05 22:52 | 39.95404 | -107.51607 | 22560 ft | 433 kts | 298° |
| 2026-05-05 22:52 | 39.96736 | -107.55132 | 23122 ft | 435 kts | 290° |
| 2026-05-05 22:52 | 39.97773 | -107.58842 | 23670 ft | 439 kts | 288° |
| 2026-05-05 22:52 | 39.98794 | -107.62641 | 24197 ft | 444 kts | 288° |
| 2026-05-05 22:53 | 39.99812 | -107.66447 | 24756 ft | 448 kts | 287° |
| 2026-05-05 22:53 | 40.00839 | -107.70295 | 25401 ft | 450 kts | 287° |
| 2026-05-05 22:53 | 40.01861 | -107.74129 | 26094 ft | 451 kts | 288° |
| 2026-05-05 22:53 | 40.02886 | -107.77982 | 26773 ft | 453 kts | 288° |
| 2026-05-05 22:54 | 40.03912 | -107.81844 | 27373 ft | 458 kts | 288° |
| 2026-05-05 22:54 | 40.05156 | -107.85718 | 27921 ft | 465 kts | 296° |
| 2026-05-05 22:54 | 40.06808 | -107.89309 | 28452 ft | 471 kts | 304° |
| 2026-05-05 22:54 | 40.08895 | -107.92626 | 28985 ft | 477 kts | 312° |
| 2026-05-05 22:55 | 40.11379 | -107.95531 | 29640 ft | 480 kts | 321° |
| 2026-05-05 22:55 | 40.14220 | -107.97926 | 30535 ft | 477 kts | 329° |
| 2026-05-05 22:55 | 40.17133 | -107.99944 | 31536 ft | 469 kts | 330° |
| 2026-05-05 22:55 | 40.20012 | -108.01914 | 32483 ft | 462 kts | 330° |
| 2026-05-05 22:56 | 40.22841 | -108.03861 | 33216 ft | 460 kts | 329° |
| 2026-05-05 22:56 | 40.25647 | -108.05803 | 33657 ft | 463 kts | 329° |
| 2026-05-05 22:56 | 40.28526 | -108.07807 | 34031 ft | 468 kts | 329° |
| 2026-05-05 22:56 | 40.31389 | -108.09809 | 34065 ft | 480 kts | 329° |
| 2026-05-05 22:57 | 40.34381 | -108.11907 | 34028 ft | 488 kts | 328° |
| 2026-05-05 22:57 | 40.40367 | -108.16112 | 34006 ft | 487 kts | 328° |
| 2026-05-05 22:58 | 40.46299 | -108.20294 | 33902 ft | 485 kts | 328° |
| 2026-05-05 22:58 | 40.52268 | -108.24515 | 33892 ft | 486 kts | 328° |
| 2026-05-05 22:59 | 40.58218 | -108.28732 | 33927 ft | 486 kts | 328° |
| 2026-05-05 22:59 | 40.64152 | -108.32947 | 33940 ft | 484 kts | 328° |
| 2026-05-05 23:00 | 40.73030 | -108.39270 | 33963 ft | 483 kts | 328° |
| 2026-05-05 23:00 | 40.78927 | -108.43481 | 33979 ft | 482 kts | 328° |
| 2026-05-05 23:01 | 40.84785 | -108.47673 | 33994 ft | 481 kts | 328° |
| 2026-05-05 23:01 | 40.90674 | -108.51896 | 34011 ft | 481 kts | 329° |
| 2026-05-05 23:02 | 40.96541 | -108.56112 | 34014 ft | 480 kts | 329° |
| 2026-05-05 23:02 | 41.02377 | -108.60313 | 34014 ft | 479 kts | 329° |
| 2026-05-05 23:03 | 41.08241 | -108.64544 | 33989 ft | 478 kts | 329° |
| 2026-05-05 23:03 | 41.14063 | -108.68753 | 33968 ft | 476 kts | 328° |
| 2026-05-05 23:04 | 41.19865 | -108.72956 | 33967 ft | 476 kts | 328° |
| 2026-05-05 23:04 | 41.25671 | -108.77171 | 33974 ft | 475 kts | 328° |
| 2026-05-05 23:05 | 41.31454 | -108.81377 | 33971 ft | 474 kts | 328° |
| 2026-05-05 23:05 | 41.37222 | -108.85581 | 33964 ft | 474 kts | 328° |
| 2026-05-05 23:06 | 41.42985 | -108.89790 | 33965 ft | 473 kts | 328° |
| 2026-05-05 23:06 | 41.48739 | -108.94001 | 33968 ft | 472 kts | 328° |
| 2026-05-05 23:07 | 41.54466 | -108.98201 | 33968 ft | 471 kts | 328° |
| 2026-05-05 23:07 | 41.60249 | -109.02269 | 33971 ft | 471 kts | 334° |
| 2026-05-05 23:08 | 41.66313 | -109.05718 | 33977 ft | 471 kts | 334° |
| 2026-05-05 23:08 | 41.72333 | -109.09131 | 33980 ft | 469 kts | 334° |
| 2026-05-05 23:09 | 41.78309 | -109.12531 | 33980 ft | 468 kts | 335° |
| 2026-05-05 23:09 | 41.84297 | -109.15949 | 33976 ft | 467 kts | 335° |
| 2026-05-05 23:10 | 41.90259 | -109.19363 | 33973 ft | 465 kts | 335° |
| 2026-05-05 23:10 | 41.96196 | -109.22768 | 33971 ft | 463 kts | 335° |
| 2026-05-05 23:11 | 42.02100 | -109.26162 | 33969 ft | 462 kts | 335° |
| 2026-05-05 23:11 | 42.08001 | -109.29562 | 33957 ft | 460 kts | 335° |
| 2026-05-05 23:12 | 42.13851 | -109.32939 | 33960 ft | 456 kts | 335° |
| 2026-05-05 23:12 | 42.19665 | -109.36302 | 33977 ft | 453 kts | 335° |
| 2026-05-05 23:13 | 42.25456 | -109.39659 | 33987 ft | 454 kts | 336° |
| 2026-05-05 23:13 | 42.31279 | -109.43041 | 33989 ft | 453 kts | 336° |
| 2026-05-05 23:14 | 42.37031 | -109.46389 | 33987 ft | 453 kts | 336° |
| 2026-05-05 23:14 | 42.42833 | -109.49772 | 33984 ft | 452 kts | 336° |
| 2026-05-05 23:15 | 42.48624 | -109.53155 | 33982 ft | 452 kts | 336° |
| 2026-05-05 23:15 | 42.54367 | -109.56519 | 33982 ft | 451 kts | 336° |
| 2026-05-05 23:16 | 42.60126 | -109.59898 | 33983 ft | 451 kts | 336° |
| 2026-05-05 23:16 | 42.65877 | -109.63279 | 33982 ft | 450 kts | 336° |
| 2026-05-05 23:17 | 42.71608 | -109.66655 | 33980 ft | 451 kts | 335° |
| 2026-05-05 23:17 | 42.77370 | -109.70056 | 33973 ft | 450 kts | 335° |
| 2026-05-05 23:18 | 42.83120 | -109.73458 | 33997 ft | 450 kts | 335° |
| 2026-05-05 23:18 | 42.88843 | -109.76849 | 34024 ft | 450 kts | 335° |
| 2026-05-05 23:19 | 42.94592 | -109.80263 | 34046 ft | 450 kts | 335° |
| 2026-05-05 23:19 | 43.00308 | -109.83665 | 34059 ft | 450 kts | 335° |
| 2026-05-05 23:20 | 43.06057 | -109.87093 | 34059 ft | 449 kts | 335° |
| 2026-05-05 23:20 | 43.11775 | -109.90511 | 34062 ft | 449 kts | 335° |
| 2026-05-05 23:21 | 43.17483 | -109.93928 | 34070 ft | 449 kts | 335° |
| 2026-05-05 23:21 | 43.23216 | -109.97368 | 34074 ft | 448 kts | 335° |
| 2026-05-05 23:22 | 43.28881 | -110.00774 | 34057 ft | 447 kts | 335° |
| 2026-05-05 23:22 | 43.34609 | -110.04224 | 34053 ft | 446 kts | 335° |
| 2026-05-05 23:23 | 43.40252 | -110.07632 | 34053 ft | 442 kts | 336° |
| 2026-05-05 23:23 | 43.45855 | -110.11021 | 34039 ft | 438 kts | 336° |
| 2026-05-05 23:24 | 43.51430 | -110.14401 | 34045 ft | 439 kts | 336° |
| 2026-05-05 23:24 | 43.57007 | -110.17788 | 34055 ft | 438 kts | 336° |
| 2026-05-05 23:25 | 43.62577 | -110.21178 | 34053 ft | 438 kts | 336° |
| 2026-05-05 23:25 | 43.68133 | -110.24567 | 34051 ft | 438 kts | 336° |
| 2026-05-05 23:26 | 43.73727 | -110.27985 | 34077 ft | 438 kts | 335° |
| 2026-05-05 23:26 | 43.79309 | -110.31403 | 34094 ft | 439 kts | 335° |
| 2026-05-05 23:27 | 43.84901 | -110.34777 | 34087 ft | 438 kts | 337° |
| 2026-05-05 23:27 | 43.90545 | -110.37875 | 34086 ft | 439 kts | 338° |
| 2026-05-05 23:28 | 43.96222 | -110.41002 | 34081 ft | 439 kts | 338° |
| 2026-05-05 23:28 | 44.01882 | -110.44137 | 34081 ft | 439 kts | 338° |
| 2026-05-05 23:29 | 44.07538 | -110.47281 | 34078 ft | 438 kts | 338° |
| 2026-05-05 23:29 | 44.13176 | -110.50425 | 34079 ft | 437 kts | 338° |
| 2026-05-05 23:30 | 44.18825 | -110.53582 | 34059 ft | 437 kts | 338° |
| 2026-05-05 23:30 | 44.24497 | -110.56760 | 34051 ft | 436 kts | 338° |
| 2026-05-05 23:31 | 44.30086 | -110.59898 | 34048 ft | 436 kts | 338° |
| 2026-05-05 23:31 | 44.35709 | -110.63063 | 34046 ft | 435 kts | 338° |
| 2026-05-05 23:32 | 44.41315 | -110.66223 | 34061 ft | 434 kts | 338° |
| 2026-05-05 23:32 | 44.46908 | -110.69384 | 34070 ft | 433 kts | 338° |
| 2026-05-05 23:33 | 44.52478 | -110.72538 | 34070 ft | 432 kts | 338° |
| 2026-05-05 23:33 | 44.58048 | -110.75698 | 34060 ft | 432 kts | 338° |
| 2026-05-05 23:34 | 44.63616 | -110.78863 | 34046 ft | 431 kts | 338° |
| 2026-05-05 23:34 | 44.69182 | -110.82035 | 34030 ft | 431 kts | 338° |
| 2026-05-05 23:35 | 44.74718 | -110.85196 | 34038 ft | 431 kts | 338° |
| 2026-05-05 23:35 | 44.80273 | -110.88374 | 34058 ft | 430 kts | 338° |
| 2026-05-05 23:36 | 44.85817 | -110.91552 | 34219 ft | 435 kts | 338° |
| 2026-05-05 23:36 | 44.88599 | -110.93150 | 34587 ft | 432 kts | 339° |
| 2026-05-05 23:36 | 44.91368 | -110.94741 | 35013 ft | 429 kts | 339° |
| 2026-05-05 23:37 | 44.94123 | -110.96326 | 35380 ft | 427 kts | 339° |
| 2026-05-05 23:37 | 44.96889 | -110.97920 | 35690 ft | 428 kts | 339° |
| 2026-05-05 23:37 | 44.99636 | -110.99503 | 35973 ft | 428 kts | 339° |
| 2026-05-05 23:37 | 45.02392 | -111.01093 | 36123 ft | 430 kts | 338° |
| 2026-05-05 23:38 | 45.07953 | -111.04308 | 36161 ft | 432 kts | 338° |
| 2026-05-05 23:38 | 45.13517 | -111.07532 | 36169 ft | 434 kts | 338° |
| 2026-05-05 23:39 | 45.19117 | -111.10783 | 36159 ft | 432 kts | 338° |
| 2026-05-05 23:39 | 45.24670 | -111.14014 | 36135 ft | 432 kts | 338° |
| 2026-05-05 23:40 | 45.30188 | -111.17231 | 36108 ft | 431 kts | 338° |
| 2026-05-05 23:40 | 45.35734 | -111.20471 | 36088 ft | 431 kts | 338° |
| 2026-05-05 23:41 | 45.41262 | -111.23708 | 36088 ft | 430 kts | 339° |
| 2026-05-05 23:41 | 45.46797 | -111.26956 | 36103 ft | 430 kts | 339° |
| 2026-05-05 23:42 | 45.52293 | -111.30187 | 36128 ft | 429 kts | 339° |
| 2026-05-05 23:42 | 45.57809 | -111.33438 | 36131 ft | 428 kts | 339° |
| 2026-05-05 23:43 | 45.63318 | -111.36691 | 36117 ft | 428 kts | 339° |
| 2026-05-05 23:43 | 45.68795 | -111.39932 | 36100 ft | 427 kts | 339° |
| 2026-05-05 23:44 | 45.74259 | -111.43173 | 36080 ft | 425 kts | 339° |
| 2026-05-05 23:44 | 45.79712 | -111.46413 | 36073 ft | 424 kts | 339° |
| 2026-05-05 23:45 | 45.85165 | -111.49661 | 36081 ft | 424 kts | 339° |
| 2026-05-05 23:45 | 45.90595 | -111.52902 | 36092 ft | 423 kts | 339° |
| 2026-05-05 23:46 | 45.96023 | -111.56148 | 36100 ft | 422 kts | 339° |
| 2026-05-05 23:46 | 46.01391 | -111.59364 | 36106 ft | 421 kts | 339° |
| 2026-05-05 23:47 | 46.06801 | -111.62614 | 36109 ft | 420 kts | 339° |
| 2026-05-05 23:47 | 46.12194 | -111.65861 | 36132 ft | 420 kts | 339° |
| 2026-05-05 23:48 | 46.17592 | -111.69117 | 36151 ft | 420 kts | 339° |
| 2026-05-05 23:48 | 46.22953 | -111.72357 | 36177 ft | 420 kts | 339° |
| 2026-05-05 23:49 | 46.28357 | -111.75630 | 36203 ft | 420 kts | 339° |
| 2026-05-05 23:49 | 46.33711 | -111.78880 | 36197 ft | 420 kts | 338° |
| 2026-05-05 23:50 | 46.39109 | -111.82165 | 36191 ft | 420 kts | 338° |
| 2026-05-05 23:50 | 46.44490 | -111.85445 | 36182 ft | 420 kts | 339° |
| 2026-05-05 23:51 | 46.49853 | -111.88722 | 36169 ft | 421 kts | 339° |
| 2026-05-05 23:51 | 46.55234 | -111.92017 | 36161 ft | 421 kts | 339° |
| 2026-05-05 23:52 | 46.60676 | -111.95130 | 36147 ft | 420 kts | 344° |
| 2026-05-05 23:52 | 46.66393 | -111.96740 | 36143 ft | 419 kts | 351° |
| 2026-05-05 23:53 | 46.72149 | -111.97970 | 36139 ft | 420 kts | 351° |
| 2026-05-05 23:53 | 46.77959 | -111.99241 | 36133 ft | 421 kts | 351° |
| 2026-05-05 23:54 | 46.83727 | -112.00519 | 36126 ft | 421 kts | 351° |
| 2026-05-05 23:54 | 46.89505 | -112.01810 | 36149 ft | 420 kts | 351° |
| 2026-05-05 23:55 | 46.95241 | -112.03097 | 36151 ft | 416 kts | 351° |
| 2026-05-05 23:55 | 47.00946 | -112.04382 | 36120 ft | 414 kts | 351° |
| 2026-05-05 23:56 | 47.06649 | -112.05670 | 36116 ft | 414 kts | 351° |
| 2026-05-05 23:56 | 47.12326 | -112.06955 | 36141 ft | 413 kts | 351° |
| 2026-05-05 23:57 | 47.18016 | -112.08247 | 36150 ft | 413 kts | 351° |
| 2026-05-05 23:57 | 47.23687 | -112.09537 | 36154 ft | 413 kts | 351° |
| 2026-05-05 23:58 | 47.29372 | -112.10833 | 36154 ft | 413 kts | 351° |
| 2026-05-05 23:58 | 47.35021 | -112.12124 | 36147 ft | 413 kts | 351° |
| 2026-05-05 23:59 | 47.40722 | -112.13429 | 36140 ft | 414 kts | 351° |
| 2026-05-05 23:59 | 47.46418 | -112.14736 | 36134 ft | 415 kts | 351° |
| 2026-05-06 00:00 | 47.52071 | -112.16035 | 36129 ft | 414 kts | 351° |
| 2026-05-06 00:00 | 47.57753 | -112.17345 | 36129 ft | 414 kts | 351° |
| 2026-05-06 00:01 | 47.63459 | -112.18664 | 36133 ft | 414 kts | 351° |
| 2026-05-06 00:01 | 47.69142 | -112.19979 | 36136 ft | 414 kts | 351° |
| 2026-05-06 00:02 | 47.74839 | -112.21300 | 36137 ft | 415 kts | 352° |
| 2026-05-06 00:02 | 47.80518 | -112.22621 | 36148 ft | 415 kts | 352° |
| 2026-05-06 00:03 | 47.86234 | -112.23954 | 36149 ft | 416 kts | 352° |
| 2026-05-06 00:03 | 47.91956 | -112.25290 | 36138 ft | 416 kts | 352° |
| 2026-05-06 00:04 | 47.97648 | -112.26622 | 36136 ft | 416 kts | 352° |
| 2026-05-06 00:04 | 48.03367 | -112.27964 | 36138 ft | 416 kts | 352° |
| 2026-05-06 00:05 | 48.11928 | -112.29978 | 36153 ft | 415 kts | 352° |
| 2026-05-06 00:06 | 48.17618 | -112.31320 | 36159 ft | 415 kts | 352° |
| 2026-05-06 00:06 | 48.23304 | -112.32664 | 36159 ft | 415 kts | 352° |
| 2026-05-06 00:07 | 48.29013 | -112.34018 | 36160 ft | 415 kts | 352° |
| 2026-05-06 00:07 | 48.34661 | -112.35359 | 36159 ft | 415 kts | 352° |
| 2026-05-06 00:08 | 48.40364 | -112.36716 | 36158 ft | 414 kts | 352° |
| 2026-05-06 00:08 | 48.46039 | -112.38071 | 36156 ft | 413 kts | 352° |
| 2026-05-06 00:09 | 48.51713 | -112.39428 | 36153 ft | 413 kts | 352° |
| 2026-05-06 00:09 | 48.57370 | -112.40784 | 36149 ft | 412 kts | 352° |
| 2026-05-06 00:10 | 48.63048 | -112.42148 | 36147 ft | 412 kts | 352° |
| 2026-05-06 00:10 | 48.68711 | -112.43511 | 36147 ft | 411 kts | 352° |
| 2026-05-06 00:11 | 48.74317 | -112.44864 | 36145 ft | 411 kts | 352° |
| 2026-05-06 00:11 | 48.79951 | -112.46227 | 36144 ft | 410 kts | 352° |
| 2026-05-06 00:12 | 48.85583 | -112.47591 | 36142 ft | 410 kts | 352° |
| 2026-05-06 00:12 | 48.91211 | -112.48959 | 36141 ft | 410 kts | 352° |
| 2026-05-06 00:13 | 48.96819 | -112.50325 | 36139 ft | 409 kts | 352° |
| 2026-05-06 00:13 | 49.02425 | -112.51694 | 36139 ft | 408 kts | 352° |
| 2026-05-06 00:14 | 49.08044 | -112.53068 | 36133 ft | 408 kts | 352° |
| 2026-05-06 00:14 | 49.13623 | -112.54436 | 36148 ft | 408 kts | 352° |
| 2026-05-06 00:15 | 49.19230 | -112.55814 | 36147 ft | 408 kts | 352° |
| 2026-05-06 00:15 | 49.24811 | -112.57188 | 36146 ft | 408 kts | 352° |
| 2026-05-06 00:16 | 49.30370 | -112.58561 | 36144 ft | 407 kts | 352° |
| 2026-05-06 00:16 | 49.35982 | -112.59950 | 36143 ft | 407 kts | 353° |
| 2026-05-06 00:17 | 49.41573 | -112.61336 | 36144 ft | 407 kts | 353° |
| 2026-05-06 00:17 | 49.47121 | -112.62715 | 36147 ft | 407 kts | 353° |
| 2026-05-06 00:18 | 49.52696 | -112.64105 | 36144 ft | 407 kts | 353° |
| 2026-05-06 00:18 | 49.58287 | -112.65501 | 36142 ft | 407 kts | 352° |
| 2026-05-06 00:19 | 49.63845 | -112.66892 | 36140 ft | 407 kts | 352° |
| 2026-05-06 00:19 | 49.69381 | -112.68748 | 36138 ft | 408 kts | 349° |
| 2026-05-06 00:20 | 49.74918 | -112.70693 | 36137 ft | 408 kts | 349° |
| 2026-05-06 00:20 | 49.81048 | -112.72828 | 36136 ft | 408 kts | 349° |
| 2026-05-06 00:21 | 49.86560 | -112.74741 | 36137 ft | 408 kts | 349° |
| 2026-05-06 00:21 | 49.92102 | -112.76666 | 36137 ft | 408 kts | 349° |
| 2026-05-06 00:22 | 49.97623 | -112.78584 | 36136 ft | 407 kts | 349° |
| 2026-05-06 00:22 | 50.03137 | -112.80504 | 36139 ft | 406 kts | 349° |
| 2026-05-06 00:23 | 50.08658 | -112.82430 | 36143 ft | 406 kts | 349° |
| 2026-05-06 00:23 | 50.14178 | -112.84361 | 36165 ft | 406 kts | 349° |
| 2026-05-06 00:24 | 50.19657 | -112.86282 | 36162 ft | 405 kts | 349° |
| 2026-05-06 00:24 | 50.25148 | -112.88210 | 36160 ft | 404 kts | 349° |
| 2026-05-06 00:25 | 50.30613 | -112.90134 | 36159 ft | 404 kts | 349° |
| 2026-05-06 00:25 | 50.36096 | -112.92069 | 36158 ft | 404 kts | 349° |
| 2026-05-06 00:26 | 50.41562 | -112.94002 | 36154 ft | 404 kts | 349° |
| 2026-05-06 00:26 | 50.47033 | -112.95942 | 36147 ft | 403 kts | 349° |
| 2026-05-06 00:27 | 50.52497 | -112.97884 | 36143 ft | 400 kts | 349° |
| 2026-05-06 00:27 | 50.55161 | -112.98835 | 36139 ft | 388 kts | 349° |
| 2026-05-06 00:27 | 50.57740 | -112.99755 | 36138 ft | 377 kts | 349° |
| 2026-05-06 00:28 | 50.62849 | -113.01577 | 36137 ft | 379 kts | 349° |
| 2026-05-06 00:28 | 50.67985 | -113.03415 | 36134 ft | 378 kts | 349° |
| 2026-05-06 00:29 | 50.73109 | -113.05252 | 36131 ft | 377 kts | 349° |
| 2026-05-06 00:29 | 50.78200 | -113.07082 | 36129 ft | 377 kts | 349° |
| 2026-05-06 00:30 | 50.83299 | -113.08920 | 36127 ft | 377 kts | 349° |
| 2026-05-06 00:30 | 50.88389 | -113.10757 | 36125 ft | 377 kts | 349° |
| 2026-05-06 00:31 | 50.93490 | -113.12603 | 36123 ft | 376 kts | 349° |
| 2026-05-06 00:31 | 50.98587 | -113.14452 | 36121 ft | 376 kts | 349° |
| 2026-05-06 00:32 | 51.03680 | -113.16303 | 36119 ft | 376 kts | 349° |
| 2026-05-06 00:32 | 51.08766 | -113.18156 | 36117 ft | 375 kts | 349° |
| 2026-05-06 00:33 | 51.13831 | -113.20007 | 36141 ft | 376 kts | 349° |
| 2026-05-06 00:33 | 51.18915 | -113.21795 | 36137 ft | 374 kts | 353° |
| 2026-05-06 00:34 | 51.24082 | -113.22678 | 36141 ft | 374 kts | 355° |
| 2026-05-06 00:34 | 51.29256 | -113.23478 | 36138 ft | 374 kts | 355° |
| 2026-05-06 00:35 | 51.34385 | -113.24284 | 36134 ft | 373 kts | 355° |
| 2026-05-06 00:35 | 51.39516 | -113.25095 | 35803 ft | 367 kts | 355° |
| 2026-05-06 00:35 | 51.42040 | -113.25496 | 35311 ft | 366 kts | 355° |
| 2026-05-06 00:36 | 51.44579 | -113.25899 | 34814 ft | 365 kts | 355° |
| 2026-05-06 00:36 | 51.47087 | -113.26298 | 34282 ft | 365 kts | 355° |
| 2026-05-06 00:36 | 51.49595 | -113.26739 | 33673 ft | 366 kts | 354° |
| 2026-05-06 00:36 | 51.52102 | -113.27252 | 32990 ft | 365 kts | 354° |
| 2026-05-06 00:37 | 51.54609 | -113.27760 | 32349 ft | 363 kts | 354° |
| 2026-05-06 00:37 | 51.57090 | -113.28268 | 31739 ft | 361 kts | 354° |
| 2026-05-06 00:37 | 51.59586 | -113.28775 | 31113 ft | 364 kts | 354° |
| 2026-05-06 00:37 | 51.62135 | -113.29291 | 30587 ft | 373 kts | 354° |
| 2026-05-06 00:38 | 51.64700 | -113.29810 | 30206 ft | 375 kts | 354° |
| 2026-05-06 00:38 | 51.67305 | -113.30337 | 29837 ft | 376 kts | 354° |
| 2026-05-06 00:38 | 51.69887 | -113.30859 | 29484 ft | 375 kts | 354° |
| 2026-05-06 00:38 | 51.72474 | -113.31383 | 29144 ft | 374 kts | 354° |
| 2026-05-06 00:39 | 51.75044 | -113.31902 | 28764 ft | 372 kts | 354° |
| 2026-05-06 00:39 | 51.77594 | -113.32420 | 28369 ft | 370 kts | 354° |
| 2026-05-06 00:39 | 51.80127 | -113.32933 | 27961 ft | 368 kts | 354° |
| 2026-05-06 00:39 | 51.82662 | -113.33447 | 27540 ft | 366 kts | 354° |
| 2026-05-06 00:40 | 51.85178 | -113.33958 | 27123 ft | 364 kts | 354° |
| 2026-05-06 00:40 | 51.87678 | -113.34467 | 26709 ft | 363 kts | 354° |
| 2026-05-06 00:40 | 51.90178 | -113.34975 | 26278 ft | 362 kts | 354° |
| 2026-05-06 00:40 | 51.92673 | -113.35484 | 25841 ft | 360 kts | 354° |
| 2026-05-06 00:41 | 51.95127 | -113.35985 | 25418 ft | 359 kts | 354° |
| 2026-05-06 00:41 | 51.97614 | -113.36493 | 24973 ft | 358 kts | 354° |
| 2026-05-06 00:41 | 52.00057 | -113.36993 | 24538 ft | 356 kts | 354° |
| 2026-05-06 00:41 | 52.02490 | -113.37492 | 24110 ft | 355 kts | 354° |
| 2026-05-06 00:42 | 52.04939 | -113.37994 | 23679 ft | 354 kts | 354° |
| 2026-05-06 00:42 | 52.07381 | -113.38494 | 23242 ft | 353 kts | 354° |
| 2026-05-06 00:42 | 52.09810 | -113.38993 | 22838 ft | 348 kts | 354° |
| 2026-05-06 00:42 | 52.12160 | -113.39487 | 22667 ft | 334 kts | 353° |
| 2026-05-06 00:43 | 52.14393 | -113.40036 | 22579 ft | 319 kts | 352° |
| 2026-05-06 00:43 | 52.16543 | -113.40578 | 22501 ft | 303 kts | 352° |
| 2026-05-06 00:43 | 52.18562 | -113.41080 | 22451 ft | 287 kts | 353° |
| 2026-05-06 00:43 | 52.20487 | -113.41554 | 22321 ft | 277 kts | 353° |
| 2026-05-06 00:44 | 52.22384 | -113.42020 | 21987 ft | 274 kts | 353° |
| 2026-05-06 00:44 | 52.24248 | -113.42478 | 21589 ft | 273 kts | 353° |
| 2026-05-06 00:44 | 52.26126 | -113.42940 | 21185 ft | 271 kts | 353° |
| 2026-05-06 00:44 | 52.27972 | -113.43393 | 20777 ft | 270 kts | 353° |
| 2026-05-06 00:45 | 52.29832 | -113.43848 | 20363 ft | 268 kts | 353° |
| 2026-05-06 00:45 | 52.31670 | -113.44305 | 19948 ft | 266 kts | 353° |
| 2026-05-06 00:45 | 52.33483 | -113.44751 | 19532 ft | 265 kts | 353° |
| 2026-05-06 00:45 | 52.35298 | -113.45199 | 19107 ft | 263 kts | 353° |
| 2026-05-06 00:46 | 52.37093 | -113.45643 | 18685 ft | 261 kts | 353° |
| 2026-05-06 00:46 | 52.38880 | -113.46090 | 18263 ft | 260 kts | 353° |
| 2026-05-06 00:46 | 52.40635 | -113.46523 | 17849 ft | 258 kts | 353° |
| 2026-05-06 00:46 | 52.42409 | -113.46963 | 17428 ft | 257 kts | 353° |
| 2026-05-06 00:47 | 52.44182 | -113.47404 | 17007 ft | 256 kts | 353° |
| 2026-05-06 00:47 | 52.45925 | -113.47841 | 16592 ft | 255 kts | 353° |
| 2026-05-06 00:47 | 52.47681 | -113.48271 | 16178 ft | 254 kts | 353° |
| 2026-05-06 00:47 | 52.49418 | -113.48703 | 15755 ft | 254 kts | 353° |
| 2026-05-06 00:48 | 52.51143 | -113.49133 | 15323 ft | 254 kts | 352° |
| 2026-05-06 00:48 | 52.52896 | -113.49571 | 14885 ft | 254 kts | 352° |
| 2026-05-06 00:48 | 52.54631 | -113.50004 | 14457 ft | 255 kts | 352° |
| 2026-05-06 00:48 | 52.56387 | -113.50444 | 14023 ft | 255 kts | 352° |
| 2026-05-06 00:49 | 52.58133 | -113.50880 | 13593 ft | 256 kts | 352° |
| 2026-05-06 00:49 | 52.59892 | -113.51318 | 13163 ft | 257 kts | 352° |
| 2026-05-06 00:49 | 52.61655 | -113.51757 | 12734 ft | 257 kts | 352° |
| 2026-05-06 00:49 | 52.63448 | -113.52045 | 12288 ft | 258 kts | 356° |
| 2026-05-06 00:50 | 52.65236 | -113.52186 | 11868 ft | 259 kts | 356° |
| 2026-05-06 00:50 | 52.67020 | -113.52329 | 11449 ft | 260 kts | 356° |
| 2026-05-06 00:50 | 52.68830 | -113.52478 | 11026 ft | 260 kts | 356° |
| 2026-05-06 00:50 | 52.70628 | -113.52628 | 10613 ft | 261 kts | 356° |
| 2026-05-06 00:51 | 52.72459 | -113.52779 | 10197 ft | 262 kts | 356° |
| 2026-05-06 00:51 | 52.74271 | -113.52930 | 9785 ft | 262 kts | 356° |
| 2026-05-06 00:51 | 52.76080 | -113.53081 | 9301 ft | 266 kts | 356° |
| 2026-05-06 00:51 | 52.77939 | -113.53236 | 8804 ft | 270 kts | 356° |
| 2026-05-06 00:52 | 52.79814 | -113.53392 | 8370 ft | 272 kts | 357° |
| 2026-05-06 00:52 | 52.81720 | -113.53550 | 8035 ft | 270 kts | 357° |
| 2026-05-06 00:52 | 52.83577 | -113.53704 | 8000 ft | 274 kts | 357° |
| 2026-05-06 00:52 | 52.85486 | -113.53863 | 7992 ft | 274 kts | 357° |
| 2026-05-06 00:53 | 52.87405 | -113.54024 | 7992 ft | 275 kts | 357° |
| 2026-05-06 00:53 | 52.89289 | -113.54181 | 7991 ft | 275 kts | 357° |
| 2026-05-06 00:53 | 52.91208 | -113.54341 | 7992 ft | 275 kts | 357° |
| 2026-05-06 00:53 | 52.93107 | -113.54500 | 7995 ft | 274 kts | 357° |
| 2026-05-06 00:54 | 52.95010 | -113.54659 | 7891 ft | 274 kts | 357° |
| 2026-05-06 00:54 | 52.96894 | -113.54816 | 7695 ft | 267 kts | 357° |
| 2026-05-06 00:54 | 52.98723 | -113.54970 | 7494 ft | 260 kts | 357° |
| 2026-05-06 00:54 | 53.00518 | -113.55120 | 7294 ft | 254 kts | 357° |
| 2026-05-06 00:55 | 53.02261 | -113.55266 | 7093 ft | 248 kts | 357° |
| 2026-05-06 00:55 | 53.03945 | -113.55175 | 6866 ft | 244 kts | 15° |
| 2026-05-06 00:55 | 53.05440 | -113.53899 | 6638 ft | 242 kts | 38° |
| 2026-05-06 00:55 | 53.06682 | -113.52054 | 6436 ft | 242 kts | 43° |
| 2026-05-06 00:56 | 53.07873 | -113.50098 | 6230 ft | 236 kts | 44° |
| 2026-05-06 00:56 | 53.09006 | -113.48211 | 6056 ft | 227 kts | 44° |
| 2026-05-06 00:56 | 53.10108 | -113.46376 | 5854 ft | 220 kts | 44° |
| 2026-05-06 00:56 | 53.11161 | -113.44624 | 5656 ft | 211 kts | 44° |
| 2026-05-06 00:57 | 53.12178 | -113.42929 | 5458 ft | 203 kts | 44° |
| 2026-05-06 00:57 | 53.13164 | -113.41285 | 5257 ft | 195 kts | 43° |
| 2026-05-06 00:57 | 53.14101 | -113.39720 | 5072 ft | 189 kts | 43° |
| 2026-05-06 00:57 | 53.15030 | -113.38191 | 5026 ft | 189 kts | 38° |
| 2026-05-06 00:58 | 53.16195 | -113.37348 | 5019 ft | 187 kts | 1° |
| 2026-05-06 00:58 | 53.17419 | -113.37850 | 5024 ft | 180 kts | 326° |
| 2026-05-06 00:58 | 53.18364 | -113.39207 | 5001 ft | 176 kts | 315° |
| 2026-05-06 00:58 | 53.19204 | -113.40633 | 4994 ft | 174 kts | 315° |
| 2026-05-06 00:59 | 53.20076 | -113.42074 | 4768 ft | 174 kts | 316° |
| 2026-05-06 00:59 | 53.20926 | -113.43476 | 4535 ft | 170 kts | 316° |
| 2026-05-06 00:59 | 53.21757 | -113.44848 | 4312 ft | 169 kts | 316° |
| 2026-05-06 00:59 | 53.22587 | -113.46222 | 4080 ft | 170 kts | 316° |
| 2026-05-06 01:00 | 53.23431 | -113.47618 | 3845 ft | 169 kts | 316° |
| 2026-05-06 01:00 | 53.24252 | -113.48980 | 3614 ft | 168 kts | 316° |
| 2026-05-06 01:00 | 53.25084 | -113.50359 | 3383 ft | 165 kts | 316° |
| 2026-05-06 01:00 | 53.25875 | -113.51669 | 3162 ft | 157 kts | 316° |
| 2026-05-06 01:01 | 53.26638 | -113.52937 | 2947 ft | 155 kts | 316° |
| 2026-05-06 01:01 | 53.27364 | -113.54265 | 2729 ft | 155 kts | 315° |
| 2026-05-06 01:01 | 53.28137 | -113.55476 | 2532 ft | 151 kts | 319° |
| 2026-05-06 01:01 | 53.28903 | -113.56705 | 2377 ft | 150 kts | 317° |
| 2026-05-06 01:02 | 53.29570 | -113.57806 | 2340 ft | 111 kts | 316° |
| 2026-05-06 01:02 | 53.29988 | -113.58507 | 2340 ft | 67 kts | 315° |
| 2026-05-06 01:02 | 53.30259 | -113.58843 | 2340 ft | 39 kts | 351° |
| 2026-05-06 01:02 | 53.30418 | -113.58848 | 2340 ft | 5 kts | 1° |
| 2026-05-06 01:03 | 53.30453 | -113.58847 | 2340 ft | 5 kts | 1° |
| 2026-05-06 01:03 | 53.30514 | -113.58845 | 2340 ft | 12 kts | 2° |